createdAt,value
2019-05-11T00:01:57.003Z,29.12
2019-05-11T00:04:25.662Z,29.63
2019-05-11T00:06:54.316Z,28.52
2019-05-11T00:09:23.074Z,27.27
2019-05-11T00:11:51.732Z,25.70
2019-05-11T00:14:20.411Z,27.52
2019-05-11T00:16:49.072Z,30.32
2019-05-11T00:19:17.763Z,31.70
2019-05-11T00:21:46.416Z,30.30
2019-05-11T00:24:15.082Z,29.70
2019-05-11T00:26:43.761Z,29.52
2019-05-11T00:29:12.426Z,34.67
2019-05-11T00:31:41.121Z,31.50
2019-05-11T00:34:09.817Z,31.62
2019-05-11T00:36:38.493Z,31.05
2019-05-11T00:39:08.256Z,32.30
2019-05-11T00:41:37.008Z,30.50
2019-05-11T00:44:05.747Z,31.05
2019-05-11T00:46:34.413Z,28.92
2019-05-11T00:49:03.178Z,28.25
2019-05-11T00:51:31.907Z,30.23
2019-05-11T00:54:00.572Z,32.20
2019-05-11T00:56:29.283Z,34.58
2019-05-11T00:58:57.953Z,33.92
2019-05-11T01:01:26.607Z,36.00
2019-05-11T01:07:24.386Z,29.60
2019-05-11T01:09:53.079Z,34.15
2019-05-11T01:12:21.747Z,34.13
2019-05-11T01:18:18.291Z,33.67
2019-05-11T01:20:46.945Z,34.40
2019-05-11T01:23:15.646Z,31.97
2019-05-11T01:25:44.358Z,29.00
2019-05-11T01:28:13.039Z,28.07
2019-05-11T01:30:42.092Z,30.45
2019-05-11T01:33:10.791Z,33.63
2019-05-11T01:35:39.483Z,32.23
2019-05-11T01:38:08.167Z,34.38
2019-05-11T01:40:36.820Z,31.45
2019-05-11T01:43:05.534Z,36.00
2019-05-11T01:45:34.239Z,35.58
2019-05-11T01:48:02.909Z,36.90
2019-05-11T01:50:31.671Z,37.20
2019-05-11T01:53:00.338Z,35.55
2019-05-11T01:55:29.035Z,35.78
2019-05-11T01:57:57.731Z,34.67
2019-05-11T02:00:26.393Z,34.15
2019-05-11T02:02:55.085Z,33.58
2019-05-11T02:05:30.603Z,35.23
2019-05-11T02:08:00.590Z,33.33
2019-05-11T02:10:30.127Z,36.17
2019-05-11T02:12:58.931Z,34.78
2019-05-11T02:15:27.704Z,35.60
2019-05-11T02:17:56.365Z,35.68
2019-05-11T02:20:25.060Z,38.33
2019-05-11T02:22:53.724Z,36.83
2019-05-11T02:25:22.479Z,35.90
2019-05-11T02:27:51.170Z,33.20
2019-05-11T02:30:20.203Z,34.08
2019-05-11T02:32:49.018Z,35.85
2019-05-11T02:35:17.725Z,32.17
2019-05-11T02:37:46.387Z,32.25
2019-05-11T02:40:15.450Z,35.98
2019-05-11T02:42:44.111Z,35.95
2019-05-11T02:45:13.136Z,40.50
2019-05-11T02:47:41.907Z,38.45
2019-05-11T02:50:10.854Z,35.65
2019-05-11T02:52:39.669Z,36.17
2019-05-11T02:55:08.531Z,39.50
2019-05-11T02:57:37.212Z,37.00
2019-05-11T03:00:08.046Z,35.60
2019-05-11T03:02:36.743Z,29.12
2019-05-11T03:05:06.860Z,33.42
2019-05-11T03:07:35.541Z,34.25
2019-05-11T03:10:04.431Z,35.33
2019-05-11T03:12:33.100Z,37.63
2019-05-11T03:15:01.803Z,36.13
2019-05-11T03:17:33.363Z,35.75
2019-05-11T03:20:02.085Z,35.08
2019-05-11T03:22:30.716Z,33.92
2019-05-11T03:24:59.417Z,33.33
2019-05-11T03:27:28.107Z,34.38
2019-05-11T03:30:00.769Z,33.65
2019-05-11T03:32:27.228Z,34.27
2019-05-11T03:34:56.910Z,33.75
2019-05-11T03:37:25.597Z,32.17
2019-05-11T03:39:54.298Z,33.42
2019-05-11T03:42:22.974Z,33.15
2019-05-11T03:44:51.639Z,38.08
2019-05-11T03:47:20.411Z,38.05
2019-05-11T03:49:49.182Z,39.42
2019-05-11T03:52:18.169Z,39.05
2019-05-11T03:54:46.868Z,39.67
2019-05-11T03:57:15.554Z,38.60
2019-05-11T03:59:44.239Z,38.60
2019-05-11T04:02:12.935Z,39.48
2019-05-11T04:04:41.706Z,40.28
2019-05-11T04:07:10.453Z,39.33
2019-05-11T04:09:39.140Z,37.58
2019-05-11T04:12:07.833Z,33.80
2019-05-11T04:14:36.484Z,37.28
2019-05-11T04:17:05.157Z,35.05
2019-05-11T04:19:33.840Z,35.28
2019-05-11T04:22:02.524Z,35.03
2019-05-11T04:24:31.186Z,35.23
2019-05-11T04:26:59.880Z,34.65
2019-05-11T04:29:28.592Z,33.58
2019-05-11T04:31:57.258Z,32.48
2019-05-11T04:34:25.932Z,30.72
2019-05-11T04:36:54.598Z,31.12
2019-05-11T04:39:23.397Z,32.55
2019-05-11T04:41:52.061Z,32.70
2019-05-11T04:44:20.729Z,31.00
2019-05-11T04:46:49.412Z,32.10
2019-05-11T04:49:18.078Z,32.17
2019-05-11T04:51:46.766Z,31.45
2019-05-11T04:54:15.462Z,31.23
2019-05-11T04:56:44.157Z,29.55
2019-05-11T04:59:12.861Z,29.87
2019-05-11T05:01:41.520Z,29.82
2019-05-11T05:04:14.387Z,30.23
2019-05-11T05:06:40.636Z,27.32
2019-05-11T05:09:09.292Z,28.62
2019-05-11T05:11:38.490Z,28.87
2019-05-11T05:14:10.157Z,25.60
2019-05-11T05:16:37.671Z,29.15
2019-05-11T05:19:06.402Z,27.48
2019-05-11T05:21:35.085Z,26.35
2019-05-11T05:24:03.816Z,27.62
2019-05-11T05:26:32.494Z,26.07
2019-05-11T05:29:01.205Z,25.25
2019-05-11T05:31:29.874Z,23.80
2019-05-11T05:34:01.323Z,25.27
2019-05-11T05:36:29.000Z,25.05
2019-05-11T05:38:57.663Z,26.07
2019-05-11T05:41:26.349Z,26.27
2019-05-11T05:43:55.008Z,27.17
2019-05-11T05:46:23.696Z,27.90
2019-05-11T05:48:52.390Z,27.80
2019-05-11T05:51:21.047Z,25.70
2019-05-11T05:53:49.735Z,24.52
2019-05-11T05:56:18.423Z,26.73
2019-05-11T05:58:47.109Z,27.70
2019-05-11T06:01:15.789Z,25.90
2019-05-11T06:03:44.486Z,25.55
2019-05-11T06:06:13.161Z,25.32
2019-05-11T06:08:43.270Z,24.67
2019-05-11T06:11:12.081Z,22.95
2019-05-11T06:13:45.215Z,25.37
2019-05-11T06:16:11.164Z,24.70
2019-05-11T06:18:39.828Z,37.98
2019-05-11T06:21:08.553Z,26.52
2019-05-11T06:23:37.171Z,27.52
2019-05-11T06:26:05.833Z,25.65
2019-05-11T06:28:34.519Z,26.57
2019-05-11T06:31:03.568Z,27.55
2019-05-11T06:33:32.322Z,26.23
2019-05-11T06:36:00.979Z,26.87
2019-05-11T06:38:29.660Z,26.87
2019-05-11T06:40:58.392Z,26.93
2019-05-11T06:43:27.085Z,29.23
2019-05-11T06:45:55.757Z,26.62
2019-05-11T06:48:24.458Z,27.55
2019-05-11T06:50:53.105Z,29.18
2019-05-11T06:53:21.772Z,27.85
2019-05-11T06:55:50.478Z,26.17
2019-05-11T06:58:19.184Z,25.92
2019-05-11T07:00:47.922Z,25.25
2019-05-11T07:03:16.663Z,24.57
2019-05-11T07:05:45.293Z,26.42
2019-05-11T07:08:13.968Z,26.05
2019-05-11T07:10:42.669Z,27.05
2019-05-11T07:13:11.380Z,25.70
2019-05-11T07:15:40.348Z,26.57
2019-05-11T07:18:09.015Z,26.05
2019-05-11T07:20:50.108Z,24.75
2019-05-11T07:23:08.102Z,25.25
2019-05-11T07:25:36.786Z,21.52
2019-05-11T07:28:05.485Z,21.42
2019-05-11T07:30:34.242Z,25.62
2019-05-11T07:33:02.924Z,22.90
2019-05-11T07:35:31.657Z,21.75
2019-05-11T07:38:00.623Z,19.55
2019-05-11T07:40:29.292Z,19.17
2019-05-11T07:42:58.934Z,19.90
2019-05-11T07:45:28.427Z,18.12
2019-05-11T07:47:58.994Z,20.12
2019-05-11T07:50:28.505Z,20.95
2019-05-11T07:52:58.852Z,20.00
2019-05-11T07:55:28.307Z,19.00
2019-05-11T07:57:58.621Z,20.00
2019-05-11T08:00:28.172Z,20.05
2019-05-11T08:02:58.508Z,19.77
2019-05-11T08:05:28.387Z,22.13
2019-05-11T08:07:59.561Z,21.40
2019-05-11T08:10:28.365Z,21.93
2019-05-11T08:12:58.841Z,19.92
2019-05-11T08:15:28.389Z,23.15
2019-05-11T08:17:57.977Z,20.05
2019-05-11T08:20:28.063Z,20.02
2019-05-11T08:23:00.582Z,18.10
2019-05-11T08:25:29.257Z,18.90
2019-05-11T08:27:58.846Z,19.92
2019-05-11T08:30:28.003Z,16.95
2019-05-11T08:32:58.224Z,18.20
2019-05-11T08:35:30.873Z,19.50
2019-05-11T08:37:58.465Z,19.02
2019-05-11T08:40:28.850Z,20.02
2019-05-11T08:42:58.413Z,20.43
2019-05-11T08:45:28.022Z,19.48
2019-05-11T08:47:57.998Z,21.52
2019-05-11T08:50:27.976Z,20.17
2019-05-11T08:52:58.075Z,21.12
2019-05-11T08:55:28.947Z,20.55
2019-05-11T08:57:58.566Z,20.70
2019-05-11T09:00:28.410Z,21.60
2019-05-11T09:02:58.274Z,21.73
2019-05-11T09:05:28.076Z,22.73
2019-05-11T09:07:57.780Z,22.52
2019-05-11T09:10:28.141Z,22.45
2019-05-11T09:12:59.037Z,21.45
2019-05-11T09:15:36.402Z,21.73
2019-05-11T09:17:57.946Z,19.55
2019-05-11T09:20:28.550Z,19.12
2019-05-11T09:22:58.890Z,18.32
2019-05-11T09:25:27.868Z,16.90
2019-05-11T09:27:58.730Z,15.93
2019-05-11T09:30:28.781Z,15.23
2019-05-11T09:32:58.100Z,16.52
2019-05-11T09:35:29.198Z,13.58
2019-05-11T09:37:58.744Z,14.28
2019-05-11T09:40:28.371Z,12.28
2019-05-11T09:42:58.526Z,9.75
2019-05-11T09:45:27.860Z,9.83
2019-05-11T09:47:58.217Z,10.50
2019-05-11T09:50:28.377Z,8.78
2019-05-11T09:52:58.079Z,8.03
2019-05-11T09:55:28.261Z,8.35
2019-05-11T09:57:57.981Z,7.42
2019-05-11T10:00:28.306Z,7.47
2019-05-11T10:02:57.755Z,6.53
2019-05-11T10:05:28.614Z,6.37
2019-05-11T10:07:58.906Z,5.78
2019-05-11T10:10:28.932Z,7.97
2019-05-11T10:12:59.037Z,7.45
2019-05-11T10:15:28.122Z,6.37
2019-05-11T10:17:58.815Z,7.00
2019-05-11T10:20:29.367Z,6.03
2019-05-11T10:22:58.364Z,5.37
2019-05-11T10:25:28.669Z,6.78
2019-05-11T10:27:58.060Z,5.40
2019-05-11T10:30:28.033Z,5.08
2019-05-11T10:32:57.882Z,5.20
2019-05-11T10:35:28.857Z,5.12
2019-05-11T10:37:58.311Z,5.75
2019-05-11T10:40:28.105Z,6.87
2019-05-11T10:42:58.994Z,5.92
2019-05-11T10:45:28.509Z,5.97
2019-05-11T10:48:00.825Z,7.47
2019-05-11T10:50:28.777Z,5.75
2019-05-11T10:52:59.044Z,5.35
2019-05-11T10:55:28.100Z,6.10
2019-05-11T10:57:58.067Z,4.85
2019-05-11T11:00:28.319Z,5.08
2019-05-11T11:02:58.129Z,4.55
2019-05-11T11:05:27.921Z,5.45
2019-05-11T11:07:58.811Z,5.12
2019-05-11T11:10:28.659Z,5.08
2019-05-11T11:12:57.889Z,5.03
2019-05-11T11:15:28.860Z,5.25
2019-05-11T11:17:57.985Z,5.10
2019-05-11T11:20:28.051Z,6.28
2019-05-11T11:22:58.285Z,5.65
2019-05-11T11:25:28.353Z,6.92
2019-05-11T11:27:57.954Z,5.78
2019-05-11T11:30:28.553Z,6.25
2019-05-11T11:32:58.775Z,6.17
2019-05-11T11:35:27.967Z,5.47
2019-05-11T11:37:58.457Z,6.40
2019-05-11T11:40:28.193Z,6.00
2019-05-11T11:42:58.114Z,5.85
2019-05-11T11:45:28.766Z,5.97
2019-05-11T11:47:58.122Z,6.67
2019-05-11T11:50:28.325Z,6.75
2019-05-11T11:52:57.854Z,6.10
2019-05-11T11:55:28.810Z,5.62
2019-05-11T11:57:58.880Z,6.45
2019-05-11T12:00:28.815Z,6.58
2019-05-11T12:02:58.110Z,5.60
2019-05-11T12:05:28.304Z,6.22
2019-05-11T12:07:58.015Z,5.83
2019-05-11T12:10:28.697Z,6.37
2019-05-11T12:12:58.081Z,6.87
2019-05-11T12:15:28.224Z,7.20
2019-05-11T12:17:58.794Z,6.87
2019-05-11T12:20:28.674Z,7.17
2019-05-11T12:22:58.101Z,7.15
2019-05-11T12:25:27.932Z,7.78
2019-05-11T12:27:57.758Z,7.87
2019-05-11T12:30:28.514Z,8.13
2019-05-11T12:32:57.743Z,7.08
2019-05-11T12:35:28.404Z,7.65
2019-05-11T12:37:58.793Z,8.18
2019-05-11T12:40:28.372Z,8.05
2019-05-11T12:42:59.071Z,8.00
2019-05-11T12:45:29.547Z,7.75
2019-05-11T12:47:58.730Z,8.58
2019-05-11T12:50:28.595Z,8.63
2019-05-11T12:52:58.796Z,9.00
2019-05-11T12:55:28.597Z,9.73
2019-05-11T12:57:58.090Z,11.53
2019-05-11T13:00:31.044Z,11.35
2019-05-11T13:02:58.870Z,9.35
2019-05-11T13:05:28.527Z,9.25
2019-05-11T13:07:58.716Z,9.20
2019-05-11T13:10:28.258Z,9.05
2019-05-11T13:12:58.128Z,8.63
2019-05-11T13:15:28.200Z,8.55
2019-05-11T13:17:58.091Z,7.97
2019-05-11T13:20:28.627Z,7.37
2019-05-11T13:22:58.759Z,8.60
2019-05-11T13:25:28.236Z,7.35
2019-05-11T13:27:58.128Z,8.70
2019-05-11T13:30:27.792Z,9.10
2019-05-11T13:32:58.065Z,7.50
2019-05-11T13:35:28.592Z,8.70
2019-05-11T13:37:59.128Z,7.67
2019-05-11T13:40:27.876Z,7.25
2019-05-11T13:42:58.178Z,7.53
2019-05-11T13:45:28.217Z,7.87
2019-05-11T13:47:59.212Z,8.73
2019-05-11T13:50:29.532Z,8.00
2019-05-11T13:52:58.418Z,9.58
2019-05-11T13:55:28.457Z,10.18
2019-05-11T13:57:57.842Z,8.55
2019-05-11T14:00:28.732Z,9.05
2019-05-11T14:02:59.234Z,9.98
2019-05-11T14:05:28.533Z,9.38
2019-05-11T14:07:58.688Z,8.50
2019-05-11T14:10:28.202Z,10.43
2019-05-11T14:12:58.094Z,9.03
2019-05-11T14:15:28.014Z,8.68
2019-05-11T14:18:05.669Z,8.08
2019-05-11T14:20:28.958Z,8.43
2019-05-11T14:22:58.444Z,6.70
2019-05-11T14:25:28.079Z,7.22
2019-05-11T14:27:59.381Z,7.17
2019-05-11T14:30:28.000Z,6.92
2019-05-11T14:32:58.109Z,6.53
2019-05-11T14:35:28.070Z,7.47
2019-05-11T14:37:58.727Z,6.85
2019-05-11T14:40:28.096Z,6.28
2019-05-11T14:42:58.068Z,6.25
2019-05-11T14:45:28.889Z,6.78
2019-05-11T14:47:58.277Z,6.00
2019-05-11T14:50:28.194Z,6.30
2019-05-11T14:52:58.094Z,7.62
2019-05-11T14:55:28.896Z,7.17
2019-05-11T14:57:57.730Z,7.33
2019-05-11T15:00:28.765Z,7.00
2019-05-11T15:02:58.457Z,7.00
2019-05-11T15:05:28.315Z,6.62
2019-05-11T15:07:58.202Z,6.53
2019-05-11T15:10:27.761Z,6.12
2019-05-11T15:12:58.878Z,6.70
2019-05-11T15:15:27.965Z,6.75
2019-05-11T15:17:58.092Z,6.40
2019-05-11T15:20:28.602Z,7.78
2019-05-11T15:22:58.177Z,5.50
2019-05-11T15:25:28.843Z,6.60
2019-05-11T15:27:58.423Z,5.75
2019-05-11T15:30:28.771Z,5.97
2019-05-11T15:32:58.453Z,5.80
2019-05-11T15:35:28.438Z,5.60
2019-05-11T15:37:58.240Z,5.72
2019-05-11T15:40:27.940Z,6.40
2019-05-11T15:42:58.610Z,5.90
2019-05-11T15:45:27.827Z,6.25
2019-05-11T15:47:58.728Z,5.87
2019-05-11T15:50:32.674Z,6.37
2019-05-11T15:53:01.326Z,7.03
2019-05-11T15:55:30.009Z,6.53
2019-05-11T15:57:58.891Z,6.25
2019-05-11T16:00:29.422Z,5.90
2019-05-11T16:02:58.130Z,6.55
2019-05-11T16:05:28.520Z,6.80
2019-05-11T16:08:01.414Z,6.53
2019-05-11T16:10:27.976Z,6.42
2019-05-11T16:12:58.636Z,6.75
2019-05-11T16:15:27.727Z,6.67
2019-05-11T16:17:57.810Z,6.53
2019-05-11T16:20:28.551Z,6.62
2019-05-11T16:22:57.358Z,6.78
2019-05-11T16:25:28.062Z,6.50
2019-05-11T16:27:56.876Z,6.72
2019-05-11T16:30:25.534Z,6.70
2019-05-11T16:32:54.218Z,6.62
2019-05-11T16:35:22.889Z,6.80
2019-05-11T16:37:51.554Z,6.92
2019-05-11T16:40:21.126Z,6.50
2019-05-11T16:42:50.129Z,6.80
2019-05-11T16:45:19.452Z,5.90
2019-05-11T16:47:48.554Z,7.08
2019-05-11T16:50:18.179Z,5.37
2019-05-11T16:52:48.236Z,5.03
2019-05-11T16:55:18.264Z,6.00
2019-05-11T16:57:48.514Z,6.53
2019-05-11T17:00:17.754Z,5.80
2019-05-11T17:02:48.662Z,5.47
2019-05-11T17:05:25.813Z,5.75
2019-05-11T17:07:48.362Z,5.35
2019-05-11T17:10:17.938Z,4.47
2019-05-11T17:12:48.293Z,5.30
2019-05-11T17:15:18.607Z,5.42
2019-05-11T17:17:48.707Z,4.45
2019-05-11T17:20:19.217Z,3.85
2019-05-11T17:22:48.400Z,4.70
2019-05-11T17:25:19.273Z,4.70
2019-05-11T17:27:48.732Z,3.45
2019-05-11T17:30:19.513Z,4.90
2019-05-11T17:32:49.265Z,4.05
2019-05-11T17:35:18.715Z,3.83
2019-05-11T17:37:48.453Z,3.50
2019-05-11T17:40:19.449Z,3.37
2019-05-11T17:42:48.400Z,3.50
2019-05-11T17:45:18.946Z,3.98
2019-05-11T17:47:48.191Z,3.62
2019-05-11T17:50:19.119Z,3.40
2019-05-11T17:52:48.068Z,3.20
2019-05-11T17:55:18.389Z,2.83
2019-05-11T17:57:49.664Z,2.95
2019-05-11T18:00:20.084Z,3.02
2019-05-11T18:02:49.000Z,3.25
2019-05-11T18:05:18.271Z,2.70
2019-05-11T18:07:46.953Z,2.72
2019-05-11T18:10:17.992Z,2.75
2019-05-11T18:12:48.340Z,2.67
2019-05-11T18:15:18.594Z,3.62
2019-05-11T18:17:48.419Z,2.33
2019-05-11T18:20:21.753Z,2.70
2019-05-11T18:22:49.467Z,3.47
2019-05-11T18:25:18.649Z,2.60
2019-05-11T18:27:48.309Z,2.33
2019-05-11T18:30:18.162Z,2.40
2019-05-11T18:32:49.071Z,2.52
2019-05-11T18:35:19.452Z,2.75
2019-05-11T18:37:48.129Z,2.67
2019-05-11T18:40:20.698Z,2.17
2019-05-11T18:42:50.830Z,2.52
2019-05-11T18:45:19.622Z,2.77
2019-05-11T18:47:48.959Z,2.92
2019-05-11T18:50:29.456Z,2.40
2019-05-11T18:52:49.056Z,3.55
2019-05-11T18:55:18.944Z,3.25
2019-05-11T18:57:48.991Z,2.77
2019-05-11T19:00:19.130Z,3.15
2019-05-11T19:02:49.503Z,2.83
2019-05-11T19:05:18.333Z,2.75
2019-05-11T19:07:48.210Z,4.00
2019-05-11T19:10:17.438Z,2.50
2019-05-11T19:12:48.434Z,2.65
2019-05-11T19:15:18.832Z,3.10
2019-05-11T19:17:48.999Z,2.95
2019-05-11T19:20:18.048Z,3.15
2019-05-11T19:22:46.855Z,3.12
2019-05-11T19:25:18.229Z,3.00
2019-05-11T19:27:50.233Z,3.40
2019-05-11T19:30:18.705Z,3.52
2019-05-11T19:32:48.740Z,3.30
2019-05-11T19:35:20.879Z,3.12
2019-05-11T19:37:48.700Z,3.70
2019-05-11T19:40:17.552Z,3.12
2019-05-11T19:42:54.375Z,3.80
2019-05-11T19:45:23.906Z,2.80
2019-05-11T19:47:52.675Z,2.85
2019-05-11T19:50:21.528Z,3.33
2019-05-11T19:52:50.194Z,3.22
2019-05-11T19:55:19.241Z,2.90
2019-05-11T19:57:48.409Z,3.55
2019-05-11T20:00:18.410Z,2.95
2019-05-11T20:02:47.471Z,3.87
2019-05-11T20:05:18.488Z,3.35
2019-05-11T20:07:48.616Z,4.17
2019-05-11T20:10:19.369Z,3.30
2019-05-11T20:12:48.569Z,2.85
2019-05-11T20:15:18.757Z,3.17
2019-05-11T20:17:48.734Z,3.75
2019-05-11T20:20:18.645Z,2.50
2019-05-11T20:22:48.531Z,3.47
2019-05-11T20:25:19.336Z,3.52
2019-05-11T20:27:48.858Z,4.67
2019-05-11T20:30:19.540Z,4.10
2019-05-11T20:32:49.945Z,3.47
2019-05-11T20:35:18.708Z,4.17
2019-05-11T20:37:47.416Z,2.95
2019-05-11T20:40:18.342Z,4.85
2019-05-11T20:42:48.479Z,3.12
2019-05-11T20:45:18.532Z,4.42
2019-05-11T20:47:48.727Z,3.15
2019-05-11T20:50:18.531Z,4.60
2019-05-11T20:52:48.090Z,3.40
2019-05-11T20:55:18.155Z,4.42
2019-05-11T20:57:48.234Z,3.70
2019-05-11T21:00:19.755Z,4.47
2019-05-11T21:02:49.020Z,3.25
2019-05-11T21:05:18.386Z,3.45
2019-05-11T21:07:49.586Z,3.80
2019-05-11T21:10:18.330Z,2.95
2019-05-11T21:12:46.995Z,3.30
2019-05-11T21:15:16.435Z,3.12
2019-05-11T21:17:45.133Z,3.00
2019-05-11T21:20:14.053Z,3.25
2019-05-11T21:22:42.716Z,3.10
2019-05-11T21:25:11.990Z,3.45
2019-05-11T21:27:40.655Z,4.17
2019-05-11T21:30:10.213Z,3.75
2019-05-11T21:32:38.958Z,3.27
2019-05-11T21:35:08.828Z,3.37
2019-05-11T21:37:39.036Z,3.37
2019-05-11T21:40:09.219Z,3.58
2019-05-11T21:42:39.025Z,3.75
2019-05-11T21:45:09.087Z,3.50
2019-05-11T21:47:38.864Z,3.65
2019-05-11T21:50:08.581Z,4.20
2019-05-11T21:52:38.381Z,3.27
2019-05-11T21:55:09.638Z,3.65
2019-05-11T21:57:38.722Z,4.87
2019-05-11T22:00:09.149Z,3.75
2019-05-11T22:02:38.690Z,3.25
2019-05-11T22:05:08.707Z,3.47
2019-05-11T22:07:38.788Z,3.87
2019-05-11T22:10:08.819Z,3.80
2019-05-11T22:12:39.134Z,3.67
2019-05-11T22:15:09.755Z,4.20
2019-05-11T22:17:39.314Z,4.37
2019-05-11T22:20:10.034Z,4.00
2019-05-11T22:22:39.410Z,3.98
2019-05-11T22:25:08.711Z,4.08
2019-05-11T22:27:38.748Z,4.47
2019-05-11T22:30:08.769Z,4.33
2019-05-11T22:32:38.317Z,4.30
2019-05-11T22:35:08.326Z,3.85
2019-05-11T22:37:38.739Z,3.60
2019-05-11T22:40:09.185Z,3.75
2019-05-11T22:42:39.702Z,3.95
2019-05-11T22:45:09.003Z,5.40
2019-05-11T22:47:39.248Z,4.00
2019-05-11T22:50:08.548Z,4.28
2019-05-11T22:52:40.108Z,4.05
2019-05-11T22:55:12.118Z,4.00
2019-05-11T22:57:39.352Z,3.75
2019-05-11T23:00:08.528Z,3.98
2019-05-11T23:02:37.988Z,4.08
2019-05-11T23:05:08.493Z,4.58
2019-05-11T23:07:41.067Z,4.22
2019-05-11T23:10:08.829Z,4.40
2019-05-11T23:12:38.333Z,3.77
2019-05-11T23:15:18.491Z,4.30
2019-05-11T23:17:47.159Z,5.30
2019-05-11T23:20:16.288Z,4.40
2019-05-11T23:22:56.938Z,5.72
2019-05-11T23:25:18.730Z,5.62
2019-05-11T23:27:48.538Z,4.92
2019-05-11T23:30:20.095Z,5.17
2019-05-11T23:32:49.323Z,4.00
2019-05-11T23:35:19.070Z,7.17
2019-05-11T23:37:49.519Z,5.25
2019-05-11T23:40:19.390Z,4.33
2019-05-11T23:42:49.050Z,4.55
2019-05-11T23:45:19.175Z,6.15
2019-05-11T23:47:48.791Z,4.65
2019-05-11T23:50:19.049Z,4.80
2019-05-11T23:52:48.789Z,4.97
2019-05-11T23:55:19.253Z,4.42
2019-05-11T23:57:48.862Z,4.20
